LFLX

Châteauroux-Déols "Marcel Dassault" Airport

Airport
ICAO code
LFLX
IATA Code
CHR
Summary
ICAO Region
EUR
ICAO Territory
Location

, Centre

Serving
Chateauroux
Elevation
529 ft
Coordinates
46° 51' 44" N , 1° 43' 50" E
Metar
Observation
LFLX 020000Z AUTO 02008KT 9999 BKN020 BKN034 OVC049 05/04 Q1022 TEMPO BKN008
Station
Chateauroux
Date/Time
2022-12-02 00:00:00
Wind direction
20°
Wind speed
08 kts
Lowest cloud amount
broken clouds
Temperature
5°C
Dew point
4°C
Humidity
93%
QNH
1022 hPa
Weather condition
n/a

Runways

Designator Length Width Surface Rops
4/22 3500 45 CON Yes/Yes

Airport map

Aerial View

SKYbrary Partners:

Safety knowledge contributed by: